createdAt,value
2017-08-22T00:01:55.873Z,1.27
2017-08-22T00:04:24.125Z,1.20
2017-08-22T00:06:52.423Z,1.23
2017-08-22T00:09:20.676Z,1.20
2017-08-22T00:11:48.959Z,1.30
2017-08-22T00:14:17.260Z,1.17
2017-08-22T00:16:45.547Z,0.93
2017-08-22T00:19:13.804Z,1.10
2017-08-22T00:21:42.100Z,1.27
2017-08-22T00:24:11.146Z,1.00
2017-08-22T00:26:39.426Z,1.10
2017-08-22T00:29:07.693Z,1.10
2017-08-22T00:31:35.940Z,1.20
2017-08-22T00:34:04.953Z,0.90
2017-08-22T00:36:33.260Z,0.90
2017-08-22T00:39:01.512Z,1.00
2017-08-22T00:41:29.848Z,1.00
2017-08-22T00:43:58.154Z,0.90
2017-08-22T00:46:26.434Z,1.10
2017-08-22T00:48:54.680Z,1.10
2017-08-22T00:51:22.983Z,1.13
2017-08-22T00:53:51.230Z,1.13
2017-08-22T00:56:19.510Z,1.00
2017-08-22T00:58:47.819Z,0.83
2017-08-22T01:01:16.098Z,1.00
2017-08-22T01:03:44.353Z,0.90
2017-08-22T01:06:13.426Z,0.97
2017-08-22T01:08:41.831Z,1.10
2017-08-22T01:11:10.080Z,1.10
2017-08-22T01:13:38.381Z,0.90
2017-08-22T01:16:06.633Z,1.00
2017-08-22T01:18:34.886Z,0.90
2017-08-22T01:21:03.187Z,1.00
2017-08-22T01:23:31.475Z,1.00
2017-08-22T01:25:59.725Z,1.00
2017-08-22T01:28:28.015Z,1.03
2017-08-22T01:30:56.299Z,1.00
2017-08-22T01:33:24.548Z,1.00
2017-08-22T01:35:52.854Z,0.90
2017-08-22T01:38:21.108Z,0.90
2017-08-22T01:40:49.394Z,0.90
2017-08-22T01:43:17.660Z,0.90
2017-08-22T01:45:45.904Z,0.80
2017-08-22T01:48:14.190Z,0.90
2017-08-22T01:50:42.551Z,1.00
2017-08-22T01:53:10.789Z,1.07
2017-08-22T01:55:39.051Z,1.00
2017-08-22T01:58:07.338Z,1.10
2017-08-22T02:00:35.618Z,1.03
2017-08-22T02:03:03.894Z,0.90
2017-08-22T02:05:32.160Z,1.10
2017-08-22T02:08:00.447Z,0.90
2017-08-22T02:10:28.721Z,0.80
2017-08-22T02:12:57.027Z,0.97
2017-08-22T02:15:25.306Z,0.90
2017-08-22T02:17:53.590Z,0.80
2017-08-22T02:20:21.894Z,1.00
2017-08-22T02:22:50.178Z,0.80
2017-08-22T02:25:19.200Z,0.97
2017-08-22T02:27:47.458Z,0.90
2017-08-22T02:30:15.775Z,0.90
2017-08-22T02:32:44.060Z,0.90
2017-08-22T02:35:12.352Z,1.00
2017-08-22T02:37:40.672Z,1.03
2017-08-22T02:40:08.964Z,0.90
2017-08-22T02:42:37.258Z,0.90
2017-08-22T02:45:05.538Z,1.00
2017-08-22T02:47:33.818Z,1.00
2017-08-22T02:50:02.080Z,1.23
2017-08-22T02:52:30.330Z,1.17
2017-08-22T02:54:58.602Z,0.90
2017-08-22T02:57:26.886Z,1.10
2017-08-22T02:59:55.161Z,0.90
2017-08-22T03:02:23.408Z,0.90
2017-08-22T03:04:51.684Z,0.90
2017-08-22T03:07:19.974Z,0.80
2017-08-22T03:09:48.271Z,1.10
2017-08-22T03:12:16.548Z,1.10
2017-08-22T03:14:44.796Z,1.10
2017-08-22T03:17:13.080Z,1.20
2017-08-22T03:19:41.481Z,1.10
2017-08-22T03:22:09.735Z,1.00
2017-08-22T03:24:37.981Z,1.10
2017-08-22T03:27:06.285Z,1.07
2017-08-22T03:29:34.528Z,0.87
2017-08-22T03:32:02.782Z,1.10
2017-08-22T03:34:31.045Z,0.90
2017-08-22T03:36:59.341Z,0.87
2017-08-22T03:39:27.619Z,1.00
2017-08-22T03:41:56.163Z,0.97
2017-08-22T03:44:24.413Z,1.00
2017-08-22T03:46:52.685Z,1.00
2017-08-22T03:49:20.994Z,1.00
2017-08-22T03:51:49.245Z,0.97
2017-08-22T03:54:17.489Z,1.10
2017-08-22T03:56:45.762Z,1.03
2017-08-22T03:59:14.009Z,0.90
2017-08-22T04:01:42.316Z,1.00
2017-08-22T04:04:10.588Z,2.87
2017-08-22T04:06:38.879Z,2.90
2017-08-22T04:09:07.166Z,2.80
2017-08-22T04:11:35.462Z,2.60
2017-08-22T04:14:03.756Z,2.80
2017-08-22T04:16:32.011Z,3.00
2017-08-22T04:19:00.303Z,3.47
2017-08-22T04:21:28.557Z,3.00
2017-08-22T04:23:56.862Z,2.80
2017-08-22T04:26:25.346Z,3.07
2017-08-22T04:28:53.593Z,2.60
2017-08-22T04:31:21.887Z,2.37
2017-08-22T04:33:50.148Z,2.30
2017-08-22T04:36:18.389Z,2.70
2017-08-22T04:38:46.666Z,2.20
2017-08-22T04:41:14.976Z,2.10
2017-08-22T04:43:43.229Z,1.97
2017-08-22T04:46:11.478Z,2.00
2017-08-22T04:48:39.778Z,1.73
2017-08-22T04:51:08.070Z,1.83
2017-08-22T04:53:36.359Z,1.70
2017-08-22T04:56:04.624Z,1.63
2017-08-22T04:58:32.878Z,2.20
2017-08-22T05:01:01.150Z,1.67
2017-08-22T05:03:29.455Z,1.97
2017-08-22T05:05:57.737Z,1.90
2017-08-22T05:08:25.980Z,1.60
2017-08-22T05:10:54.295Z,1.60
2017-08-22T05:13:22.551Z,2.10
2017-08-22T05:15:50.834Z,1.57
2017-08-22T05:18:19.127Z,1.70
2017-08-22T05:20:47.372Z,1.70
2017-08-22T05:23:15.646Z,1.80
2017-08-22T05:25:43.921Z,1.57
2017-08-22T05:28:12.212Z,1.70
2017-08-22T05:30:40.508Z,1.40
2017-08-22T05:33:08.785Z,1.73
2017-08-22T05:35:37.033Z,1.47
2017-08-22T05:38:05.320Z,1.47
2017-08-22T05:40:33.622Z,1.50
2017-08-22T05:43:01.912Z,1.70
2017-08-22T05:45:30.160Z,1.50
2017-08-22T05:47:58.436Z,1.23
2017-08-22T05:50:26.727Z,1.47
2017-08-22T05:52:55.014Z,1.40
2017-08-22T05:55:24.122Z,1.40
2017-08-22T05:57:52.413Z,1.40
2017-08-22T06:00:20.657Z,1.47
2017-08-22T06:02:48.964Z,1.10
2017-08-22T06:05:17.213Z,1.23
2017-08-22T06:07:45.494Z,1.50
2017-08-22T06:10:13.790Z,1.37
2017-08-22T06:12:42.812Z,1.40
2017-08-22T06:15:11.068Z,1.40
2017-08-22T06:17:39.339Z,1.30
2017-08-22T06:20:07.623Z,1.40
2017-08-22T06:22:35.869Z,1.20
2017-08-22T06:25:04.158Z,1.40
2017-08-22T06:27:32.404Z,1.30
2017-08-22T06:30:00.695Z,1.30
2017-08-22T06:32:28.984Z,1.30
2017-08-22T06:34:57.285Z,1.50
2017-08-22T06:37:25.562Z,1.30
2017-08-22T06:39:54.018Z,1.40
2017-08-22T06:42:22.267Z,1.30
2017-08-22T06:44:50.538Z,1.30
2017-08-22T06:47:18.793Z,1.30
2017-08-22T06:49:47.036Z,1.13
2017-08-22T06:52:15.334Z,1.10
2017-08-22T06:54:43.617Z,1.47
2017-08-22T06:57:11.871Z,1.17
2017-08-22T06:59:40.111Z,1.13
2017-08-22T07:02:08.389Z,1.10
2017-08-22T07:04:36.645Z,1.10
2017-08-22T07:07:04.922Z,1.20
2017-08-22T07:09:33.239Z,1.30
2017-08-22T07:12:01.497Z,1.50
2017-08-22T07:14:29.552Z,1.40
2017-08-22T07:16:58.623Z,1.07
2017-08-22T07:19:26.872Z,1.20
2017-08-22T07:21:55.117Z,1.30
2017-08-22T07:24:24.230Z,1.20
2017-08-22T07:26:52.478Z,1.20
2017-08-22T07:29:20.767Z,1.10
2017-08-22T07:31:49.073Z,1.20
2017-08-22T07:34:17.362Z,1.10
2017-08-22T07:36:45.609Z,1.10
2017-08-22T07:39:13.875Z,1.10
2017-08-22T07:41:42.160Z,1.10
2017-08-22T07:44:10.409Z,1.20
2017-08-22T07:46:38.711Z,1.30
2017-08-22T07:49:06.985Z,1.10
2017-08-22T07:51:35.266Z,1.10
2017-08-22T07:54:04.261Z,1.10
2017-08-22T07:56:32.542Z,1.10
2017-08-22T07:59:00.813Z,1.10
2017-08-22T08:01:28.902Z,1.10
2017-08-22T08:03:56.994Z,1.20
2017-08-22T08:06:25.052Z,1.10
2017-08-22T08:08:53.350Z,1.17
2017-08-22T08:11:21.437Z,1.20
2017-08-22T08:13:49.739Z,1.00
2017-08-22T08:16:18.066Z,1.00
2017-08-22T08:18:46.317Z,1.20
2017-08-22T08:21:14.619Z,1.10
2017-08-22T08:23:42.881Z,1.20
2017-08-22T08:26:11.139Z,1.30
2017-08-22T08:28:39.388Z,1.40
2017-08-22T08:31:08.341Z,1.20
2017-08-22T08:33:36.626Z,1.10
2017-08-22T08:36:04.918Z,1.00
2017-08-22T08:38:33.222Z,1.17
2017-08-22T08:41:01.503Z,1.10
2017-08-22T08:43:29.786Z,1.10
2017-08-22T08:45:58.053Z,1.00
2017-08-22T08:48:26.305Z,1.10
2017-08-22T08:50:54.562Z,1.30
2017-08-22T08:53:22.684Z,1.00
2017-08-22T08:55:50.930Z,1.00
2017-08-22T08:58:19.173Z,1.10
2017-08-22T09:00:47.436Z,1.33
2017-08-22T09:03:15.713Z,1.03
2017-08-22T09:05:43.997Z,1.00
2017-08-22T09:08:12.307Z,0.97
2017-08-22T09:10:40.561Z,1.23
2017-08-22T09:13:08.841Z,1.00
2017-08-22T09:15:37.171Z,1.10
2017-08-22T09:18:05.430Z,0.90
2017-08-22T09:20:33.682Z,1.10
2017-08-22T09:23:01.937Z,1.00
2017-08-22T09:25:30.180Z,0.97
2017-08-22T09:27:58.463Z,1.00
2017-08-22T09:30:26.730Z,0.97
2017-08-22T09:32:55.010Z,1.00
2017-08-22T09:35:23.302Z,0.90
2017-08-22T09:37:51.591Z,1.07
2017-08-22T09:40:19.866Z,1.07
2017-08-22T09:42:48.121Z,1.03
2017-08-22T09:45:16.382Z,1.10
2017-08-22T09:47:44.727Z,1.20
2017-08-22T09:50:13.019Z,1.03
2017-08-22T09:52:41.999Z,1.10
2017-08-22T09:55:10.284Z,0.90
2017-08-22T09:57:38.575Z,1.33
2017-08-22T10:00:06.661Z,0.90
2017-08-22T10:02:34.912Z,1.20
2017-08-22T10:05:03.165Z,0.87
2017-08-22T10:07:31.522Z,1.03
2017-08-22T10:09:59.768Z,1.07
2017-08-22T10:12:28.012Z,0.83
2017-08-22T10:14:56.329Z,1.00
2017-08-22T10:17:24.577Z,1.00
2017-08-22T10:19:52.825Z,0.90
2017-08-22T10:22:21.097Z,1.00
2017-08-22T10:24:49.190Z,0.90
2017-08-22T10:27:17.449Z,1.37
2017-08-22T10:29:46.510Z,0.90
2017-08-22T10:32:14.789Z,0.90
2017-08-22T10:34:43.806Z,1.13
2017-08-22T10:37:12.107Z,1.00
2017-08-22T10:39:40.739Z,0.90
2017-08-22T10:42:09.039Z,1.10
2017-08-22T10:44:37.464Z,0.90
2017-08-22T10:47:05.716Z,1.00
2017-08-22T10:49:34.089Z,1.10
2017-08-22T10:52:02.392Z,0.90
2017-08-22T10:54:31.451Z,1.00
2017-08-22T10:56:59.694Z,0.83
2017-08-22T10:59:27.995Z,0.90
2017-08-22T11:01:57.014Z,1.00
2017-08-22T11:04:25.260Z,0.93
2017-08-22T11:06:53.575Z,0.90
2017-08-22T11:09:21.871Z,0.90
2017-08-22T11:11:50.121Z,0.90
2017-08-22T11:14:19.134Z,0.77
2017-08-22T11:16:47.424Z,0.80
2017-08-22T11:19:15.720Z,0.90
2017-08-22T11:21:43.995Z,0.90
2017-08-22T11:24:12.381Z,1.10
2017-08-22T11:26:40.634Z,0.90
2017-08-22T11:29:08.925Z,1.10
2017-08-22T11:31:37.202Z,0.90
2017-08-22T11:34:06.217Z,1.00
2017-08-22T11:36:34.523Z,1.03
2017-08-22T11:39:02.627Z,0.90
2017-08-22T11:41:30.923Z,0.80
2017-08-22T11:43:59.193Z,0.90
2017-08-22T11:46:27.474Z,0.83
2017-08-22T11:48:55.724Z,1.00
2017-08-22T11:51:24.027Z,0.90
2017-08-22T11:53:52.312Z,0.80
2017-08-22T11:56:20.607Z,1.00
2017-08-22T11:58:48.874Z,0.97
2017-08-22T12:01:17.152Z,0.90
2017-08-22T12:03:45.400Z,0.90
2017-08-22T12:06:13.706Z,0.90
2017-08-22T12:08:41.957Z,0.87
2017-08-22T12:11:10.208Z,0.90
2017-08-22T12:13:38.476Z,0.80
2017-08-22T12:16:06.733Z,0.90
2017-08-22T12:18:34.831Z,0.87
2017-08-22T12:21:02.937Z,0.80
2017-08-22T12:23:31.033Z,0.90
2017-08-22T12:25:59.318Z,0.90
2017-08-22T12:28:27.576Z,0.97
2017-08-22T12:30:55.854Z,0.70
2017-08-22T12:33:24.146Z,0.90
2017-08-22T12:35:52.454Z,0.93
2017-08-22T12:38:20.701Z,1.00
2017-08-22T12:40:48.944Z,0.80
2017-08-22T12:43:17.200Z,0.90
2017-08-22T12:45:45.488Z,1.10
2017-08-22T12:48:13.741Z,0.90
2017-08-22T12:50:42.010Z,0.90
2017-08-22T12:53:10.299Z,0.83
2017-08-22T12:55:38.578Z,1.00
2017-08-22T12:58:06.660Z,0.90
2017-08-22T13:00:34.957Z,0.90
2017-08-22T13:03:03.213Z,1.00
2017-08-22T13:05:31.477Z,0.90
2017-08-22T13:07:59.728Z,1.10
2017-08-22T13:10:27.976Z,0.87
2017-08-22T13:12:56.243Z,0.80
2017-08-22T13:15:24.514Z,1.00
2017-08-22T13:17:52.794Z,0.93
2017-08-22T13:20:21.337Z,0.80
2017-08-22T13:22:49.609Z,0.80
2017-08-22T13:25:17.967Z,0.80
2017-08-22T13:27:46.263Z,0.77
2017-08-22T13:30:14.516Z,0.80
2017-08-22T13:32:42.803Z,0.80
2017-08-22T13:35:11.069Z,0.70
2017-08-22T13:37:39.341Z,0.90
2017-08-22T13:40:07.626Z,1.00
2017-08-22T13:42:35.939Z,0.90
2017-08-22T13:45:04.188Z,0.70
2017-08-22T13:47:32.474Z,0.90
2017-08-22T13:50:00.737Z,0.90
2017-08-22T13:52:28.983Z,0.80
2017-08-22T13:54:57.275Z,0.77
2017-08-22T13:57:25.569Z,0.80
2017-08-22T13:59:53.828Z,0.83
2017-08-22T14:02:22.106Z,1.00
2017-08-22T14:04:50.428Z,1.00
2017-08-22T14:07:18.684Z,0.90
2017-08-22T14:09:46.929Z,0.70
2017-08-22T14:12:15.239Z,0.87
2017-08-22T14:14:43.530Z,0.70
2017-08-22T14:17:11.781Z,0.80
2017-08-22T14:19:40.065Z,0.90
2017-08-22T14:22:08.350Z,0.80
2017-08-22T14:24:36.600Z,0.80
2017-08-22T14:27:04.881Z,0.90
2017-08-22T14:29:33.174Z,0.80
2017-08-22T14:32:01.425Z,0.80
2017-08-22T14:34:29.688Z,0.73
2017-08-22T14:36:57.978Z,0.70
2017-08-22T14:39:26.259Z,0.80
2017-08-22T14:41:54.571Z,0.80
2017-08-22T14:44:22.854Z,0.80
2017-08-22T14:46:51.105Z,0.80
2017-08-22T14:49:19.407Z,1.10
2017-08-22T14:51:47.657Z,0.83
2017-08-22T14:54:15.909Z,0.80
2017-08-22T14:56:44.191Z,1.00
2017-08-22T14:59:12.477Z,0.80
2017-08-22T15:01:40.716Z,0.73
2017-08-22T15:04:08.989Z,0.90
2017-08-22T15:06:37.255Z,1.00
2017-08-22T15:09:05.287Z,0.90
2017-08-22T15:11:33.637Z,0.70
2017-08-22T15:14:02.219Z,0.80
2017-08-22T15:16:31.237Z,0.83
2017-08-22T15:19:32.786Z,1.00
2017-08-22T15:22:01.070Z,0.83
2017-08-22T15:24:30.001Z,0.83
2017-08-22T15:26:58.268Z,0.80
2017-08-22T15:29:26.555Z,0.77
2017-08-22T15:31:54.813Z,0.80
2017-08-22T15:34:23.114Z,0.90
2017-08-22T15:36:51.404Z,0.80
2017-08-22T15:39:19.722Z,0.80
2017-08-22T15:41:48.801Z,0.80
2017-08-22T15:44:17.044Z,0.93
2017-08-22T15:46:45.297Z,0.90
2017-08-22T15:49:14.372Z,0.80
2017-08-22T15:51:43.414Z,0.70
2017-08-22T15:54:11.661Z,0.80
2017-08-22T15:56:39.927Z,0.73
2017-08-22T15:59:08.169Z,0.80
2017-08-22T16:01:36.456Z,0.80
2017-08-22T16:04:04.731Z,0.70
2017-08-22T16:06:32.977Z,0.87
2017-08-22T16:09:01.230Z,0.77
2017-08-22T16:11:29.505Z,0.70
2017-08-22T16:13:57.790Z,0.90
2017-08-22T16:16:26.048Z,0.80
2017-08-22T16:18:54.317Z,0.70
2017-08-22T16:21:22.569Z,0.70
2017-08-22T16:23:50.816Z,0.70
2017-08-22T16:26:19.110Z,0.80
2017-08-22T16:28:47.352Z,0.80
2017-08-22T16:31:15.683Z,0.70
2017-08-22T16:33:43.991Z,0.80
2017-08-22T16:36:13.050Z,0.70
2017-08-22T16:38:41.369Z,0.70
2017-08-22T16:41:09.660Z,0.70
2017-08-22T16:43:38.677Z,0.60
2017-08-22T16:46:07.697Z,0.60
2017-08-22T16:48:35.969Z,0.70
2017-08-22T16:51:04.269Z,0.87
2017-08-22T16:53:33.314Z,0.70
2017-08-22T16:56:01.813Z,0.70
2017-08-22T16:58:30.052Z,0.70
2017-08-22T17:00:58.337Z,0.73
2017-08-22T17:03:27.383Z,0.80
2017-08-22T17:05:56.308Z,0.67
2017-08-22T17:08:24.554Z,0.80
2017-08-22T17:10:52.826Z,0.70
2017-08-22T17:13:21.098Z,0.80
2017-08-22T17:15:49.386Z,0.77
2017-08-22T17:18:17.694Z,0.70
2017-08-22T17:20:45.944Z,0.70
2017-08-22T17:23:14.196Z,0.63
2017-08-22T17:25:42.490Z,0.67
2017-08-22T17:28:10.780Z,0.57
2017-08-22T17:30:39.066Z,0.63
2017-08-22T17:33:08.142Z,0.80
2017-08-22T17:35:36.426Z,0.70
2017-08-22T17:38:04.716Z,0.70
2017-08-22T17:40:33.036Z,0.70
2017-08-22T17:43:01.319Z,0.70
2017-08-22T17:45:29.587Z,0.80
2017-08-22T17:47:58.517Z,0.60
2017-08-22T17:50:27.533Z,0.70
2017-08-22T17:52:55.785Z,0.70
2017-08-22T17:55:24.058Z,0.70
2017-08-22T17:57:52.329Z,0.70
2017-08-22T18:00:20.592Z,0.70
2017-08-22T18:02:48.894Z,0.90
2017-08-22T18:05:17.904Z,0.70
2017-08-22T18:07:46.191Z,0.70
2017-08-22T18:10:14.457Z,0.70
2017-08-22T18:12:42.714Z,0.70
2017-08-22T18:15:10.966Z,0.70
2017-08-22T18:17:39.258Z,0.60
2017-08-22T18:20:07.571Z,0.60
2017-08-22T18:22:35.820Z,0.63
2017-08-22T18:25:04.092Z,0.70
2017-08-22T18:27:32.380Z,0.70
2017-08-22T18:30:00.666Z,0.80
2017-08-22T18:32:29.041Z,1.40
2017-08-22T18:34:57.325Z,1.00
2017-08-22T18:37:25.610Z,0.90
2017-08-22T18:39:53.891Z,0.90
2017-08-22T18:42:22.132Z,1.00
2017-08-22T18:44:50.431Z,1.10
2017-08-22T18:47:18.696Z,1.10
2017-08-22T18:49:47.720Z,1.27
2017-08-22T18:52:15.968Z,1.00
2017-08-22T18:54:44.266Z,1.10
2017-08-22T18:57:12.547Z,1.20
2017-08-22T18:59:40.793Z,1.30
2017-08-22T19:02:09.057Z,1.07
2017-08-22T19:04:37.302Z,1.27
2017-08-22T19:07:05.544Z,1.40
2017-08-22T19:09:33.849Z,1.23
2017-08-22T19:12:02.126Z,1.13
2017-08-22T19:14:30.509Z,1.20
2017-08-22T19:16:58.801Z,1.30
2017-08-22T19:19:27.044Z,1.30
2017-08-22T19:21:55.326Z,1.00
2017-08-22T19:24:23.623Z,1.00
2017-08-22T19:26:51.898Z,1.20
2017-08-22T19:29:20.180Z,1.07
2017-08-22T19:31:48.480Z,1.20
2017-08-22T19:34:16.733Z,1.30
2017-08-22T19:36:45.014Z,1.30
2017-08-22T19:39:14.089Z,1.00
2017-08-22T19:41:42.379Z,1.00
2017-08-22T19:44:10.660Z,1.30
2017-08-22T19:46:39.025Z,0.90
2017-08-22T19:49:07.298Z,1.27
2017-08-22T19:51:35.548Z,0.90
2017-08-22T19:54:04.441Z,1.07
2017-08-22T19:56:32.721Z,1.07
2017-08-22T19:59:01.736Z,1.00
2017-08-22T20:01:30.022Z,0.93
2017-08-22T20:03:58.281Z,1.17
2017-08-22T20:06:26.533Z,1.00
2017-08-22T20:08:54.833Z,1.00
2017-08-22T20:11:23.081Z,1.10
2017-08-22T20:13:51.333Z,1.13
2017-08-22T20:16:19.633Z,1.10
2017-08-22T20:18:47.885Z,1.10
2017-08-22T20:21:16.901Z,0.90
2017-08-22T20:23:45.980Z,1.13
2017-08-22T20:26:14.349Z,1.20
2017-08-22T20:28:42.635Z,0.93
2017-08-22T20:31:10.931Z,1.13
2017-08-22T20:33:39.978Z,0.80
2017-08-22T20:36:08.251Z,0.90
2017-08-22T20:38:36.569Z,1.03
2017-08-22T20:41:04.813Z,0.90
2017-08-22T20:43:33.097Z,1.10
2017-08-22T20:46:01.372Z,1.07
2017-08-22T20:48:29.650Z,1.00
2017-08-22T20:50:57.904Z,0.90
2017-08-22T20:53:26.174Z,1.10
2017-08-22T20:55:54.425Z,1.00
2017-08-22T20:58:22.747Z,1.10
2017-08-22T21:00:51.051Z,0.90
2017-08-22T21:03:19.304Z,1.00
2017-08-22T21:05:47.590Z,0.97
2017-08-22T21:08:16.100Z,1.07
2017-08-22T21:10:44.381Z,1.00
2017-08-22T21:13:12.637Z,1.00
2017-08-22T21:15:40.930Z,0.90
2017-08-22T21:18:09.209Z,0.87
2017-08-22T21:20:37.504Z,1.50
2017-08-22T21:23:05.768Z,3.40
2017-08-22T21:25:34.020Z,3.70
2017-08-22T21:28:02.306Z,3.47
2017-08-22T21:30:30.575Z,3.20
2017-08-22T21:32:58.858Z,2.73
2017-08-22T21:35:27.128Z,2.80
2017-08-22T21:37:55.389Z,2.70
2017-08-22T21:40:23.779Z,2.80
2017-08-22T21:42:52.033Z,2.77
2017-08-22T21:45:20.453Z,2.60
2017-08-22T21:47:49.499Z,2.50
2017-08-22T21:50:17.786Z,2.37
2017-08-22T21:52:46.077Z,2.40
2017-08-22T21:55:14.329Z,2.80
2017-08-22T21:57:42.608Z,2.67
2017-08-22T22:00:10.868Z,2.70
2017-08-22T22:02:39.117Z,2.70
2017-08-22T22:05:07.497Z,2.37
2017-08-22T22:07:35.798Z,2.30
2017-08-22T22:10:04.807Z,2.20
2017-08-22T22:12:33.217Z,2.30
2017-08-22T22:15:02.428Z,2.30
2017-08-22T22:17:30.668Z,2.00
2017-08-22T22:19:58.912Z,2.27
2017-08-22T22:22:27.188Z,2.37
2017-08-22T22:24:55.470Z,2.17
2017-08-22T22:27:23.721Z,2.10
2017-08-22T22:29:52.200Z,3.00
2017-08-22T22:32:20.500Z,2.13
2017-08-22T22:34:48.782Z,2.20
2017-08-22T22:37:17.055Z,1.87
2017-08-22T22:39:45.343Z,2.10
2017-08-22T22:42:13.631Z,1.90
2017-08-22T22:44:41.905Z,2.20
2017-08-22T22:47:10.190Z,2.23
2017-08-22T22:49:38.471Z,2.10
2017-08-22T22:52:07.537Z,2.30
2017-08-22T22:54:35.846Z,2.10
2017-08-22T22:57:04.122Z,1.90
2017-08-22T22:59:32.434Z,2.20
2017-08-22T23:02:00.681Z,2.27
2017-08-22T23:04:28.958Z,2.13
2017-08-22T23:06:57.262Z,1.87
2017-08-22T23:09:25.503Z,1.80
2017-08-22T23:11:53.752Z,2.00
2017-08-22T23:14:22.029Z,1.87
2017-08-22T23:16:50.280Z,1.70
2017-08-22T23:19:18.560Z,2.00
2017-08-22T23:21:47.210Z,1.93
2017-08-22T23:24:15.465Z,1.80
2017-08-22T23:26:43.723Z,2.03
2017-08-22T23:29:11.981Z,1.67
2017-08-22T23:31:40.237Z,1.67
2017-08-22T23:34:08.497Z,1.53
2017-08-22T23:36:36.942Z,1.80
2017-08-22T23:39:04.672Z,1.80
2017-08-22T23:41:32.918Z,2.00
2017-08-22T23:44:01.188Z,1.80
2017-08-22T23:46:29.516Z,2.10
2017-08-22T23:48:57.773Z,1.70
2017-08-22T23:51:26.045Z,1.80
2017-08-22T23:53:54.296Z,5.03
2017-08-22T23:56:22.579Z,5.80
2017-08-22T23:58:51.172Z,5.80
